sensor_id;sensor_type;location;lat;lon;timestamp;P1;durP1;ratioP1;P2;durP2;ratioP2
47764;SDS011;33529;49.242;8.670;2022-12-18T00:01:25;29.15;;;16.98;;
47764;SDS011;33529;49.242;8.670;2022-12-18T00:03:57;32.38;;;17.83;;
47764;SDS011;33529;49.242;8.670;2022-12-18T00:06:25;33.72;;;18.30;;
47764;SDS011;33529;49.242;8.670;2022-12-18T00:08:54;33.78;;;17.58;;
47764;SDS011;33529;49.242;8.670;2022-12-18T00:11:23;34.30;;;18.27;;
47764;SDS011;33529;49.242;8.670;2022-12-18T00:13:52;32.88;;;18.05;;
47764;SDS011;33529;49.242;8.670;2022-12-18T00:16:21;29.60;;;16.73;;
47764;SDS011;33529;49.242;8.670;2022-12-18T00:18:50;27.85;;;16.00;;
47764;SDS011;33529;49.242;8.670;2022-12-18T00:21:19;32.03;;;17.35;;
47764;SDS011;33529;49.242;8.670;2022-12-18T00:23:47;27.70;;;15.60;;
47764;SDS011;33529;49.242;8.670;2022-12-18T00:26:19;0.20;;;0.20;;
47764;SDS011;33529;49.242;8.670;2022-12-18T00:28:50;25.75;;;15.23;;
47764;SDS011;33529;49.242;8.670;2022-12-18T00:31:22;31.10;;;15.57;;
47764;SDS011;33529;49.242;8.670;2022-12-18T00:33:53;29.25;;;17.25;;
47764;SDS011;33529;49.242;8.670;2022-12-18T00:36:22;27.70;;;16.65;;
47764;SDS011;33529;49.242;8.670;2022-12-18T00:38:51;29.90;;;16.80;;
47764;SDS011;33529;49.242;8.670;2022-12-18T00:41:20;30.85;;;16.70;;
47764;SDS011;33529;49.242;8.670;2022-12-18T00:44:06;28.92;;;16.60;;
47764;SDS011;33529;49.242;8.670;2022-12-18T00:46:35;0.20;;;0.20;;
47764;SDS011;33529;49.242;8.670;2022-12-18T00:49:02;30.45;;;15.85;;
47764;SDS011;33529;49.242;8.670;2022-12-18T00:51:30;27.40;;;15.35;;
47764;SDS011;33529;49.242;8.670;2022-12-18T00:53:57;26.55;;;15.95;;
47764;SDS011;33529;49.242;8.670;2022-12-18T00:56:24;31.80;;;17.25;;
47764;SDS011;33529;49.242;8.670;2022-12-18T00:58:51;28.50;;;16.48;;
47764;SDS011;33529;49.242;8.670;2022-12-18T01:01:18;30.13;;;17.67;;
47764;SDS011;33529;49.242;8.670;2022-12-18T01:03:46;25.65;;;16.55;;
47764;SDS011;33529;49.242;8.670;2022-12-18T01:06:13;29.63;;;17.88;;
47764;SDS011;33529;49.242;8.670;2022-12-18T01:08:41;27.83;;;16.33;;
47764;SDS011;33529;49.242;8.670;2022-12-18T01:11:12;33.13;;;17.80;;
47764;SDS011;33529;49.242;8.670;2022-12-18T01:13:41;27.65;;;18.20;;
47764;SDS011;33529;49.242;8.670;2022-12-18T01:16:08;29.40;;;16.02;;
47764;SDS011;33529;49.242;8.670;2022-12-18T01:18:38;0.30;;;0.30;;
47764;SDS011;33529;49.242;8.670;2022-12-18T01:21:10;27.20;;;15.35;;
47764;SDS011;33529;49.242;8.670;2022-12-18T01:23:38;32.45;;;17.23;;
47764;SDS011;33529;49.242;8.670;2022-12-18T01:26:07;33.17;;;17.80;;
47764;SDS011;33529;49.242;8.670;2022-12-18T01:28:35;27.75;;;16.55;;
47764;SDS011;33529;49.242;8.670;2022-12-18T01:31:21;34.50;;;17.20;;
47764;SDS011;33529;49.242;8.670;2022-12-18T01:33:53;29.48;;;16.77;;
47764;SDS011;33529;49.242;8.670;2022-12-18T01:36:22;32.42;;;18.00;;
47764;SDS011;33529;49.242;8.670;2022-12-18T01:38:51;36.23;;;20.43;;
47764;SDS011;33529;49.242;8.670;2022-12-18T01:41:21;33.38;;;17.80;;
47764;SDS011;33529;49.242;8.670;2022-12-18T01:43:56;36.45;;;19.13;;
47764;SDS011;33529;49.242;8.670;2022-12-18T01:46:24;29.73;;;18.08;;
47764;SDS011;33529;49.242;8.670;2022-12-18T01:48:56;31.77;;;18.10;;
47764;SDS011;33529;49.242;8.670;2022-12-18T01:51:25;29.67;;;18.45;;
47764;SDS011;33529;49.242;8.670;2022-12-18T01:53:53;36.28;;;18.80;;
47764;SDS011;33529;49.242;8.670;2022-12-18T01:56:21;27.15;;;16.25;;
47764;SDS011;33529;49.242;8.670;2022-12-18T01:58:53;31.08;;;17.10;;
47764;SDS011;33529;49.242;8.670;2022-12-18T02:01:31;33.42;;;19.20;;
47764;SDS011;33529;49.242;8.670;2022-12-18T02:06:51;28.73;;;18.40;;
47764;SDS011;33529;49.242;8.670;2022-12-18T02:09:37;33.28;;;18.10;;
47764;SDS011;33529;49.242;8.670;2022-12-18T02:12:23;30.63;;;17.48;;
47764;SDS011;33529;49.242;8.670;2022-12-18T02:17:29;30.58;;;17.48;;
47764;SDS011;33529;49.242;8.670;2022-12-18T02:28:09;31.13;;;17.73;;
47764;SDS011;33529;49.242;8.670;2022-12-18T02:30:39;31.08;;;18.60;;
47764;SDS011;33529;49.242;8.670;2022-12-18T02:33:08;28.05;;;16.08;;
47764;SDS011;33529;49.242;8.670;2022-12-18T02:35:38;30.45;;;17.63;;
47764;SDS011;33529;49.242;8.670;2022-12-18T02:38:07;26.83;;;16.83;;
47764;SDS011;33529;49.242;8.670;2022-12-18T02:40:36;33.83;;;17.27;;
47764;SDS011;33529;49.242;8.670;2022-12-18T02:43:08;30.63;;;17.33;;
47764;SDS011;33529;49.242;8.670;2022-12-18T02:45:50;32.30;;;18.65;;
47764;SDS011;33529;49.242;8.670;2022-12-18T02:48:24;26.02;;;16.77;;
47764;SDS011;33529;49.242;8.670;2022-12-18T02:51:08;27.60;;;18.02;;
47764;SDS011;33529;49.242;8.670;2022-12-18T02:53:56;28.73;;;16.95;;
47764;SDS011;33529;49.242;8.670;2022-12-18T02:56:44;31.02;;;17.70;;
47764;SDS011;33529;49.242;8.670;2022-12-18T02:59:19;28.55;;;16.80;;
47764;SDS011;33529;49.242;8.670;2022-12-18T03:04:29;29.45;;;17.10;;
47764;SDS011;33529;49.242;8.670;2022-12-18T03:07:23;27.58;;;15.43;;
47764;SDS011;33529;49.242;8.670;2022-12-18T03:09:59;26.98;;;15.75;;
47764;SDS011;33529;49.242;8.670;2022-12-18T03:12:29;23.38;;;14.45;;
47764;SDS011;33529;49.242;8.670;2022-12-18T03:17:30;24.45;;;14.30;;
47764;SDS011;33529;49.242;8.670;2022-12-18T03:20:03;27.83;;;17.33;;
47764;SDS011;33529;49.242;8.670;2022-12-18T03:22:40;23.88;;;15.65;;
47764;SDS011;33529;49.242;8.670;2022-12-18T03:25:13;25.55;;;14.73;;
47764;SDS011;33529;49.242;8.670;2022-12-18T03:27:42;26.17;;;15.27;;
47764;SDS011;33529;49.242;8.670;2022-12-18T03:30:15;27.52;;;14.95;;
47764;SDS011;33529;49.242;8.670;2022-12-18T03:32:52;27.83;;;15.15;;
47764;SDS011;33529;49.242;8.670;2022-12-18T03:35:29;28.17;;;13.75;;
47764;SDS011;33529;49.242;8.670;2022-12-18T03:37:59;27.42;;;15.57;;
47764;SDS011;33529;49.242;8.670;2022-12-18T03:40:29;27.80;;;15.65;;
47764;SDS011;33529;49.242;8.670;2022-12-18T03:43:17;27.67;;;15.38;;
47764;SDS011;33529;49.242;8.670;2022-12-18T03:45:51;27.08;;;14.90;;
47764;SDS011;33529;49.242;8.670;2022-12-18T03:48:26;24.17;;;14.80;;
47764;SDS011;33529;49.242;8.670;2022-12-18T03:50:59;25.20;;;13.75;;
47764;SDS011;33529;49.242;8.670;2022-12-18T03:53:51;23.63;;;14.68;;
47764;SDS011;33529;49.242;8.670;2022-12-18T03:56:49;23.15;;;14.82;;
47764;SDS011;33529;49.242;8.670;2022-12-18T03:59:22;25.92;;;15.18;;
47764;SDS011;33529;49.242;8.670;2022-12-18T04:01:52;31.67;;;16.58;;
47764;SDS011;33529;49.242;8.670;2022-12-18T04:04:23;27.85;;;16.10;;
47764;SDS011;33529;49.242;8.670;2022-12-18T04:06:51;27.05;;;15.75;;
47764;SDS011;33529;49.242;8.670;2022-12-18T04:09:19;28.20;;;17.30;;
47764;SDS011;33529;49.242;8.670;2022-12-18T04:11:47;27.60;;;16.85;;
47764;SDS011;33529;49.242;8.670;2022-12-18T04:14:15;27.05;;;16.13;;
47764;SDS011;33529;49.242;8.670;2022-12-18T04:16:44;29.00;;;18.10;;
47764;SDS011;33529;49.242;8.670;2022-12-18T04:19:14;29.02;;;17.90;;
47764;SDS011;33529;49.242;8.670;2022-12-18T04:21:43;28.60;;;16.88;;
47764;SDS011;33529;49.242;8.670;2022-12-18T04:24:12;28.70;;;17.52;;
47764;SDS011;33529;49.242;8.670;2022-12-18T04:26:46;27.98;;;17.15;;
47764;SDS011;33529;49.242;8.670;2022-12-18T04:29:17;28.13;;;17.75;;
47764;SDS011;33529;49.242;8.670;2022-12-18T04:31:44;31.15;;;17.88;;
47764;SDS011;33529;49.242;8.670;2022-12-18T04:34:11;30.52;;;17.02;;
47764;SDS011;33529;49.242;8.670;2022-12-18T04:36:46;28.67;;;17.67;;
47764;SDS011;33529;49.242;8.670;2022-12-18T04:39:13;29.63;;;18.27;;
47764;SDS011;33529;49.242;8.670;2022-12-18T04:41:40;28.95;;;17.80;;
47764;SDS011;33529;49.242;8.670;2022-12-18T04:44:08;29.77;;;17.08;;
47764;SDS011;33529;49.242;8.670;2022-12-18T04:46:35;30.65;;;17.58;;
47764;SDS011;33529;49.242;8.670;2022-12-18T04:49:02;32.65;;;19.23;;
47764;SDS011;33529;49.242;8.670;2022-12-18T04:51:29;31.33;;;18.88;;
47764;SDS011;33529;49.242;8.670;2022-12-18T04:53:55;30.58;;;18.05;;
47764;SDS011;33529;49.242;8.670;2022-12-18T04:56:22;27.08;;;16.77;;
47764;SDS011;33529;49.242;8.670;2022-12-18T04:58:49;28.95;;;17.75;;
47764;SDS011;33529;49.242;8.670;2022-12-18T05:01:16;29.52;;;19.13;;
47764;SDS011;33529;49.242;8.670;2022-12-18T05:03:44;35.45;;;18.10;;
47764;SDS011;33529;49.242;8.670;2022-12-18T05:06:11;31.88;;;20.13;;
47764;SDS011;33529;49.242;8.670;2022-12-18T05:08:38;32.13;;;18.35;;
47764;SDS011;33529;49.242;8.670;2022-12-18T05:11:07;29.00;;;17.77;;
47764;SDS011;33529;49.242;8.670;2022-12-18T05:13:35;32.67;;;19.42;;
47764;SDS011;33529;49.242;8.670;2022-12-18T05:16:04;33.53;;;18.08;;
47764;SDS011;33529;49.242;8.670;2022-12-18T05:18:32;30.98;;;18.30;;
47764;SDS011;33529;49.242;8.670;2022-12-18T05:20:58;32.42;;;20.30;;
47764;SDS011;33529;49.242;8.670;2022-12-18T05:23:25;31.27;;;18.05;;
47764;SDS011;33529;49.242;8.670;2022-12-18T05:25:54;34.55;;;18.65;;
47764;SDS011;33529;49.242;8.670;2022-12-18T05:28:25;32.28;;;19.33;;
47764;SDS011;33529;49.242;8.670;2022-12-18T05:30:55;37.20;;;20.15;;
47764;SDS011;33529;49.242;8.670;2022-12-18T05:33:25;32.58;;;18.63;;
47764;SDS011;33529;49.242;8.670;2022-12-18T05:35:55;32.28;;;18.92;;
47764;SDS011;33529;49.242;8.670;2022-12-18T05:38:25;35.33;;;19.05;;
47764;SDS011;33529;49.242;8.670;2022-12-18T05:40:52;34.63;;;19.80;;
47764;SDS011;33529;49.242;8.670;2022-12-18T05:43:19;34.60;;;19.38;;
47764;SDS011;33529;49.242;8.670;2022-12-18T05:45:50;32.78;;;18.67;;
47764;SDS011;33529;49.242;8.670;2022-12-18T05:48:17;34.55;;;18.63;;
47764;SDS011;33529;49.242;8.670;2022-12-18T05:50:45;31.35;;;19.60;;
47764;SDS011;33529;49.242;8.670;2022-12-18T05:53:14;38.22;;;21.50;;
47764;SDS011;33529;49.242;8.670;2022-12-18T05:55:42;33.88;;;19.30;;
47764;SDS011;33529;49.242;8.670;2022-12-18T05:58:10;36.28;;;19.63;;
47764;SDS011;33529;49.242;8.670;2022-12-18T06:00:41;35.35;;;18.75;;
47764;SDS011;33529;49.242;8.670;2022-12-18T06:03:10;39.22;;;20.13;;
47764;SDS011;33529;49.242;8.670;2022-12-18T06:05:39;39.28;;;18.75;;
47764;SDS011;33529;49.242;8.670;2022-12-18T06:08:07;35.22;;;19.45;;
47764;SDS011;33529;49.242;8.670;2022-12-18T06:10:35;30.40;;;19.42;;
47764;SDS011;33529;49.242;8.670;2022-12-18T06:13:01;25.23;;;16.42;;
47764;SDS011;33529;49.242;8.670;2022-12-18T06:15:28;34.65;;;18.75;;
47764;SDS011;33529;49.242;8.670;2022-12-18T06:17:55;34.13;;;19.08;;
47764;SDS011;33529;49.242;8.670;2022-12-18T06:20:22;32.70;;;17.92;;
47764;SDS011;33529;49.242;8.670;2022-12-18T06:22:51;34.13;;;19.70;;
47764;SDS011;33529;49.242;8.670;2022-12-18T06:25:18;30.90;;;17.83;;
47764;SDS011;33529;49.242;8.670;2022-12-18T06:27:46;31.48;;;17.42;;
47764;SDS011;33529;49.242;8.670;2022-12-18T06:30:14;29.92;;;17.25;;
47764;SDS011;33529;49.242;8.670;2022-12-18T06:32:41;32.08;;;16.83;;
47764;SDS011;33529;49.242;8.670;2022-12-18T06:35:08;31.95;;;17.95;;
47764;SDS011;33529;49.242;8.670;2022-12-18T06:37:35;31.00;;;18.30;;
47764;SDS011;33529;49.242;8.670;2022-12-18T06:40:02;30.15;;;17.63;;
47764;SDS011;33529;49.242;8.670;2022-12-18T06:42:29;34.65;;;18.45;;
47764;SDS011;33529;49.242;8.670;2022-12-18T06:44:55;31.33;;;16.23;;
47764;SDS011;33529;49.242;8.670;2022-12-18T06:47:22;33.45;;;17.83;;
47764;SDS011;33529;49.242;8.670;2022-12-18T06:49:49;34.95;;;17.80;;
47764;SDS011;33529;49.242;8.670;2022-12-18T06:52:16;32.55;;;18.42;;
47764;SDS011;33529;49.242;8.670;2022-12-18T06:54:43;35.20;;;16.85;;
47764;SDS011;33529;49.242;8.670;2022-12-18T06:57:09;33.70;;;17.90;;
47764;SDS011;33529;49.242;8.670;2022-12-18T06:59:36;32.78;;;18.77;;
47764;SDS011;33529;49.242;8.670;2022-12-18T07:02:03;29.33;;;16.52;;
47764;SDS011;33529;49.242;8.670;2022-12-18T07:04:30;31.23;;;17.83;;
47764;SDS011;33529;49.242;8.670;2022-12-18T07:06:58;36.10;;;18.25;;
47764;SDS011;33529;49.242;8.670;2022-12-18T07:09:24;30.85;;;18.15;;
47764;SDS011;33529;49.242;8.670;2022-12-18T07:11:52;27.98;;;16.75;;
47764;SDS011;33529;49.242;8.670;2022-12-18T07:14:18;29.27;;;18.10;;
47764;SDS011;33529;49.242;8.670;2022-12-18T07:16:45;32.42;;;18.08;;
47764;SDS011;33529;49.242;8.670;2022-12-18T07:19:12;31.30;;;18.38;;
47764;SDS011;33529;49.242;8.670;2022-12-18T07:21:39;32.10;;;16.17;;
47764;SDS011;33529;49.242;8.670;2022-12-18T07:24:06;34.95;;;17.88;;
47764;SDS011;33529;49.242;8.670;2022-12-18T07:26:33;34.45;;;18.45;;
47764;SDS011;33529;49.242;8.670;2022-12-18T07:29:00;28.35;;;16.55;;
47764;SDS011;33529;49.242;8.670;2022-12-18T07:31:27;29.35;;;16.50;;
47764;SDS011;33529;49.242;8.670;2022-12-18T07:33:54;26.77;;;16.17;;
47764;SDS011;33529;49.242;8.670;2022-12-18T07:36:21;30.02;;;17.80;;
47764;SDS011;33529;49.242;8.670;2022-12-18T07:38:49;31.25;;;17.70;;
47764;SDS011;33529;49.242;8.670;2022-12-18T07:41:17;25.20;;;15.13;;
47764;SDS011;33529;49.242;8.670;2022-12-18T07:43:44;32.00;;;15.55;;
47764;SDS011;33529;49.242;8.670;2022-12-18T07:46:12;31.27;;;17.23;;
47764;SDS011;33529;49.242;8.670;2022-12-18T07:48:40;28.58;;;16.92;;
47764;SDS011;33529;49.242;8.670;2022-12-18T07:51:13;25.45;;;16.35;;
47764;SDS011;33529;49.242;8.670;2022-12-18T07:53:40;34.70;;;17.80;;
47764;SDS011;33529;49.242;8.670;2022-12-18T07:56:09;28.58;;;16.98;;
47764;SDS011;33529;49.242;8.670;2022-12-18T07:58:55;29.20;;;16.50;;
47764;SDS011;33529;49.242;8.670;2022-12-18T08:01:23;29.35;;;16.05;;
47764;SDS011;33529;49.242;8.670;2022-12-18T08:03:50;33.70;;;17.17;;
47764;SDS011;33529;49.242;8.670;2022-12-18T08:06:18;29.00;;;16.58;;
47764;SDS011;33529;49.242;8.670;2022-12-18T08:08:50;26.30;;;15.18;;
47764;SDS011;33529;49.242;8.670;2022-12-18T08:11:20;27.33;;;16.83;;
47764;SDS011;33529;49.242;8.670;2022-12-18T08:13:48;28.52;;;15.93;;
47764;SDS011;33529;49.242;8.670;2022-12-18T08:16:15;32.38;;;16.75;;
47764;SDS011;33529;49.242;8.670;2022-12-18T08:18:42;24.63;;;15.82;;
47764;SDS011;33529;49.242;8.670;2022-12-18T08:23:39;25.48;;;14.93;;
47764;SDS011;33529;49.242;8.670;2022-12-18T08:26:09;27.95;;;15.02;;
47764;SDS011;33529;49.242;8.670;2022-12-18T08:28:36;33.25;;;16.10;;
47764;SDS011;33529;49.242;8.670;2022-12-18T08:31:03;32.25;;;15.68;;
47764;SDS011;33529;49.242;8.670;2022-12-18T08:33:30;32.38;;;17.10;;
47764;SDS011;33529;49.242;8.670;2022-12-18T08:36:00;30.30;;;15.05;;
47764;SDS011;33529;49.242;8.670;2022-12-18T08:38:28;31.13;;;15.88;;
47764;SDS011;33529;49.242;8.670;2022-12-18T08:41:07;29.20;;;15.50;;
47764;SDS011;33529;49.242;8.670;2022-12-18T08:43:36;28.05;;;14.88;;
47764;SDS011;33529;49.242;8.670;2022-12-18T08:46:23;28.58;;;15.88;;
47764;SDS011;33529;49.242;8.670;2022-12-18T08:48:51;23.45;;;12.77;;
47764;SDS011;33529;49.242;8.670;2022-12-18T08:51:19;30.10;;;14.98;;
47764;SDS011;33529;49.242;8.670;2022-12-18T08:53:46;27.27;;;13.35;;
47764;SDS011;33529;49.242;8.670;2022-12-18T08:56:13;26.80;;;14.75;;
47764;SDS011;33529;49.242;8.670;2022-12-18T08:58:41;28.35;;;16.17;;
47764;SDS011;33529;49.242;8.670;2022-12-18T09:01:09;27.10;;;14.85;;
47764;SDS011;33529;49.242;8.670;2022-12-18T09:03:37;29.20;;;15.60;;
47764;SDS011;33529;49.242;8.670;2022-12-18T09:06:05;27.80;;;14.90;;
47764;SDS011;33529;49.242;8.670;2022-12-18T09:08:32;26.52;;;14.27;;
47764;SDS011;33529;49.242;8.670;2022-12-18T09:10:59;27.52;;;15.32;;
47764;SDS011;33529;49.242;8.670;2022-12-18T09:13:26;24.60;;;13.85;;
47764;SDS011;33529;49.242;8.670;2022-12-18T09:15:54;27.23;;;14.45;;
47764;SDS011;33529;49.242;8.670;2022-12-18T09:18:22;27.20;;;14.27;;
47764;SDS011;33529;49.242;8.670;2022-12-18T09:20:50;27.67;;;14.75;;
47764;SDS011;33529;49.242;8.670;2022-12-18T09:23:19;27.25;;;14.43;;
47764;SDS011;33529;49.242;8.670;2022-12-18T09:25:46;29.67;;;15.05;;
47764;SDS011;33529;49.242;8.670;2022-12-18T09:28:14;30.52;;;14.77;;
47764;SDS011;33529;49.242;8.670;2022-12-18T09:30:44;29.08;;;15.15;;
47764;SDS011;33529;49.242;8.670;2022-12-18T09:33:13;27.73;;;13.73;;
47764;SDS011;33529;49.242;8.670;2022-12-18T09:35:40;30.92;;;14.25;;
47764;SDS011;33529;49.242;8.670;2022-12-18T09:38:09;23.85;;;13.63;;
47764;SDS011;33529;49.242;8.670;2022-12-18T09:40:52;25.00;;;13.02;;
47764;SDS011;33529;49.242;8.670;2022-12-18T09:43:28;25.20;;;13.60;;
47764;SDS011;33529;49.242;8.670;2022-12-18T09:46:03;22.67;;;12.35;;
47764;SDS011;33529;49.242;8.670;2022-12-18T09:48:38;23.75;;;12.68;;
47764;SDS011;33529;49.242;8.670;2022-12-18T09:51:13;26.20;;;13.38;;
47764;SDS011;33529;49.242;8.670;2022-12-18T09:53:44;26.48;;;12.77;;
47764;SDS011;33529;49.242;8.670;2022-12-18T09:56:18;27.60;;;13.30;;
47764;SDS011;33529;49.242;8.670;2022-12-18T09:58:55;28.15;;;13.50;;
47764;SDS011;33529;49.242;8.670;2022-12-18T10:01:24;22.20;;;12.13;;
47764;SDS011;33529;49.242;8.670;2022-12-18T10:04:04;31.02;;;12.82;;
47764;SDS011;33529;49.242;8.670;2022-12-18T10:06:35;27.63;;;14.18;;
47764;SDS011;33529;49.242;8.670;2022-12-18T10:15:20;23.00;;;11.35;;
47764;SDS011;33529;49.242;8.670;2022-12-18T10:20:38;24.13;;;13.25;;
47764;SDS011;33529;49.242;8.670;2022-12-18T10:28:17;20.23;;;12.05;;
47764;SDS011;33529;49.242;8.670;2022-12-18T10:30:45;24.30;;;11.65;;
47764;SDS011;33529;49.242;8.670;2022-12-18T10:33:17;24.23;;;13.00;;
47764;SDS011;33529;49.242;8.670;2022-12-18T10:35:46;24.90;;;12.07;;
47764;SDS011;33529;49.242;8.670;2022-12-18T10:43:24;20.98;;;11.50;;
47764;SDS011;33529;49.242;8.670;2022-12-18T10:46:27;21.88;;;11.93;;
47764;SDS011;33529;49.242;8.670;2022-12-18T10:48:49;25.80;;;11.95;;
47764;SDS011;33529;49.242;8.670;2022-12-18T10:56:30;25.25;;;12.65;;
47764;SDS011;33529;49.242;8.670;2022-12-18T10:59:01;24.83;;;12.23;;
47764;SDS011;33529;49.242;8.670;2022-12-18T11:01:47;23.23;;;11.77;;
47764;SDS011;33529;49.242;8.670;2022-12-18T11:04:18;24.33;;;12.45;;
47764;SDS011;33529;49.242;8.670;2022-12-18T11:07:00;22.20;;;12.02;;
47764;SDS011;33529;49.242;8.670;2022-12-18T11:09:33;22.83;;;13.48;;
47764;SDS011;33529;49.242;8.670;2022-12-18T11:12:01;21.88;;;11.65;;
47764;SDS011;33529;49.242;8.670;2022-12-18T11:14:51;20.95;;;11.20;;
47764;SDS011;33529;49.242;8.670;2022-12-18T11:19:53;22.60;;;11.80;;
47764;SDS011;33529;49.242;8.670;2022-12-18T11:22:28;20.88;;;10.30;;
47764;SDS011;33529;49.242;8.670;2022-12-18T11:25:00;24.33;;;12.25;;
47764;SDS011;33529;49.242;8.670;2022-12-18T11:27:54;22.23;;;10.63;;
47764;SDS011;33529;49.242;8.670;2022-12-18T11:30:30;22.60;;;12.70;;
47764;SDS011;33529;49.242;8.670;2022-12-18T11:33:04;23.98;;;12.02;;
47764;SDS011;33529;49.242;8.670;2022-12-18T11:35:50;21.67;;;11.05;;
47764;SDS011;33529;49.242;8.670;2022-12-18T11:38:26;27.63;;;12.85;;
47764;SDS011;33529;49.242;8.670;2022-12-18T11:41:18;23.90;;;12.50;;
47764;SDS011;33529;49.242;8.670;2022-12-18T11:43:56;23.88;;;10.80;;
47764;SDS011;33529;49.242;8.670;2022-12-18T11:46:34;27.40;;;12.70;;
47764;SDS011;33529;49.242;8.670;2022-12-18T11:49:10;19.23;;;11.18;;
47764;SDS011;33529;49.242;8.670;2022-12-18T11:51:51;27.88;;;13.80;;
47764;SDS011;33529;49.242;8.670;2022-12-18T11:54:19;26.08;;;12.18;;
47764;SDS011;33529;49.242;8.670;2022-12-18T11:56:51;25.10;;;11.73;;
47764;SDS011;33529;49.242;8.670;2022-12-18T11:59:34;20.10;;;10.95;;
47764;SDS011;33529;49.242;8.670;2022-12-18T12:09:57;22.63;;;11.63;;
47764;SDS011;33529;49.242;8.670;2022-12-18T12:21:28;20.25;;;10.85;;
47764;SDS011;33529;49.242;8.670;2022-12-18T12:35:52;24.95;;;12.20;;
47764;SDS011;33529;49.242;8.670;2022-12-18T12:38:23;22.88;;;10.35;;
47764;SDS011;33529;49.242;8.670;2022-12-18T12:41:13;24.05;;;12.70;;
47764;SDS011;33529;49.242;8.670;2022-12-18T12:44:03;22.27;;;12.68;;
47764;SDS011;33529;49.242;8.670;2022-12-18T12:46:36;23.52;;;11.55;;
47764;SDS011;33529;49.242;8.670;2022-12-18T12:49:27;22.23;;;10.80;;
47764;SDS011;33529;49.242;8.670;2022-12-18T12:52:05;20.75;;;12.18;;
47764;SDS011;33529;49.242;8.670;2022-12-18T12:54:40;22.48;;;10.82;;
47764;SDS011;33529;49.242;8.670;2022-12-18T13:05:32;23.00;;;11.10;;
47764;SDS011;33529;49.242;8.670;2022-12-18T13:08:04;19.35;;;11.95;;
47764;SDS011;33529;49.242;8.670;2022-12-18T13:10:37;22.33;;;11.57;;
47764;SDS011;33529;49.242;8.670;2022-12-18T13:13:08;19.17;;;11.00;;
47764;SDS011;33529;49.242;8.670;2022-12-18T13:15:44;22.58;;;11.20;;
47764;SDS011;33529;49.242;8.670;2022-12-18T13:18:29;19.73;;;11.32;;
47764;SDS011;33529;49.242;8.670;2022-12-18T13:30:59;19.55;;;11.70;;
47764;SDS011;33529;49.242;8.670;2022-12-18T13:41:47;21.38;;;10.73;;
47764;SDS011;33529;49.242;8.670;2022-12-18T13:47:24;25.67;;;11.63;;
47764;SDS011;33529;49.242;8.670;2022-12-18T13:49:59;24.83;;;11.43;;
47764;SDS011;33529;49.242;8.670;2022-12-18T13:52:33;26.80;;;11.43;;
47764;SDS011;33529;49.242;8.670;2022-12-18T13:55:04;23.42;;;10.63;;
47764;SDS011;33529;49.242;8.670;2022-12-18T13:57:37;22.15;;;10.75;;
47764;SDS011;33529;49.242;8.670;2022-12-18T14:00:24;20.35;;;10.57;;
47764;SDS011;33529;49.242;8.670;2022-12-18T14:02:56;17.95;;;9.20;;
47764;SDS011;33529;49.242;8.670;2022-12-18T14:05:25;21.65;;;11.50;;
47764;SDS011;33529;49.242;8.670;2022-12-18T14:07:53;21.20;;;11.93;;
47764;SDS011;33529;49.242;8.670;2022-12-18T14:10:21;24.95;;;11.63;;
47764;SDS011;33529;49.242;8.670;2022-12-18T14:13:10;19.52;;;9.68;;
47764;SDS011;33529;49.242;8.670;2022-12-18T14:15:43;20.88;;;11.27;;
47764;SDS011;33529;49.242;8.670;2022-12-18T14:18:19;23.02;;;12.82;;
47764;SDS011;33529;49.242;8.670;2022-12-18T14:20:53;21.50;;;12.05;;
47764;SDS011;33529;49.242;8.670;2022-12-18T14:26:26;21.77;;;11.13;;
47764;SDS011;33529;49.242;8.670;2022-12-18T14:28:55;22.10;;;10.60;;
47764;SDS011;33529;49.242;8.670;2022-12-18T14:31:24;21.48;;;11.70;;
47764;SDS011;33529;49.242;8.670;2022-12-18T14:33:53;19.20;;;9.90;;
47764;SDS011;33529;49.242;8.670;2022-12-18T14:36:21;18.85;;;10.60;;
47764;SDS011;33529;49.242;8.670;2022-12-18T14:38:51;24.75;;;11.70;;
47764;SDS011;33529;49.242;8.670;2022-12-18T14:41:22;21.15;;;11.15;;
47764;SDS011;33529;49.242;8.670;2022-12-18T14:43:50;22.35;;;12.13;;
47764;SDS011;33529;49.242;8.670;2022-12-18T14:49:42;26.85;;;12.32;;
47764;SDS011;33529;49.242;8.670;2022-12-18T14:52:03;22.83;;;11.95;;
47764;SDS011;33529;49.242;8.670;2022-12-18T14:54:45;25.58;;;11.68;;
47764;SDS011;33529;49.242;8.670;2022-12-18T14:57:29;23.25;;;11.65;;
47764;SDS011;33529;49.242;8.670;2022-12-18T15:00:05;21.52;;;11.60;;
47764;SDS011;33529;49.242;8.670;2022-12-18T15:02:40;21.30;;;11.55;;
47764;SDS011;33529;49.242;8.670;2022-12-18T15:07:42;26.70;;;12.02;;
47764;SDS011;33529;49.242;8.670;2022-12-18T15:10:15;22.48;;;13.10;;
47764;SDS011;33529;49.242;8.670;2022-12-18T15:20:42;29.67;;;11.88;;
47764;SDS011;33529;49.242;8.670;2022-12-18T15:23:21;27.13;;;12.55;;
47764;SDS011;33529;49.242;8.670;2022-12-18T15:25:59;23.73;;;12.75;;
47764;SDS011;33529;49.242;8.670;2022-12-18T15:28:34;24.25;;;11.85;;
47764;SDS011;33529;49.242;8.670;2022-12-18T15:33:41;23.35;;;12.27;;
47764;SDS011;33529;49.242;8.670;2022-12-18T15:36:26;23.38;;;11.93;;
47764;SDS011;33529;49.242;8.670;2022-12-18T15:38:56;22.27;;;11.98;;
47764;SDS011;33529;49.242;8.670;2022-12-18T15:41:32;24.88;;;11.65;;
47764;SDS011;33529;49.242;8.670;2022-12-18T15:44:01;27.25;;;12.05;;
47764;SDS011;33529;49.242;8.670;2022-12-18T15:46:29;27.48;;;13.38;;
47764;SDS011;33529;49.242;8.670;2022-12-18T15:48:57;25.30;;;11.45;;
47764;SDS011;33529;49.242;8.670;2022-12-18T15:51:29;19.75;;;11.77;;
47764;SDS011;33529;49.242;8.670;2022-12-18T15:54:08;22.80;;;10.90;;
47764;SDS011;33529;49.242;8.670;2022-12-18T15:56:40;23.83;;;11.77;;
47764;SDS011;33529;49.242;8.670;2022-12-18T15:59:25;20.65;;;10.90;;
47764;SDS011;33529;49.242;8.670;2022-12-18T16:01:52;24.33;;;11.50;;
47764;SDS011;33529;49.242;8.670;2022-12-18T16:04:20;22.95;;;11.45;;
47764;SDS011;33529;49.242;8.670;2022-12-18T16:06:48;30.58;;;13.05;;
47764;SDS011;33529;49.242;8.670;2022-12-18T16:09:35;22.40;;;10.40;;
47764;SDS011;33529;49.242;8.670;2022-12-18T16:12:02;26.90;;;12.07;;
47764;SDS011;33529;49.242;8.670;2022-12-18T16:14:30;25.45;;;13.13;;
47764;SDS011;33529;49.242;8.670;2022-12-18T16:16:59;22.70;;;11.40;;
47764;SDS011;33529;49.242;8.670;2022-12-18T16:19:32;21.00;;;11.10;;
47764;SDS011;33529;49.242;8.670;2022-12-18T16:21:58;23.83;;;11.40;;
47764;SDS011;33529;49.242;8.670;2022-12-18T16:24:30;23.45;;;11.15;;
47764;SDS011;33529;49.242;8.670;2022-12-18T16:26:59;19.55;;;11.40;;
47764;SDS011;33529;49.242;8.670;2022-12-18T16:29:26;21.52;;;11.18;;
47764;SDS011;33529;49.242;8.670;2022-12-18T16:31:55;22.05;;;10.45;;
47764;SDS011;33529;49.242;8.670;2022-12-18T16:36:58;24.88;;;12.20;;
47764;SDS011;33529;49.242;8.670;2022-12-18T16:39:33;21.77;;;11.73;;
47764;SDS011;33529;49.242;8.670;2022-12-18T16:42:11;20.83;;;10.80;;
47764;SDS011;33529;49.242;8.670;2022-12-18T16:44:46;25.52;;;13.27;;
47764;SDS011;33529;49.242;8.670;2022-12-18T16:47:14;19.88;;;10.90;;
47764;SDS011;33529;49.242;8.670;2022-12-18T16:49:42;21.98;;;11.98;;
47764;SDS011;33529;49.242;8.670;2022-12-18T16:52:13;27.67;;;12.43;;
47764;SDS011;33529;49.242;8.670;2022-12-18T16:54:40;20.52;;;11.20;;